Time;durP1;ratioP1;P1;durP2;ratioP2;P2;SDS_P1;SDS_P2;PMS_P1;PMS_P2;Temp;Humidity;BMP_temperature;BMP_pressure;BME280_temperature;BME280_humidity;BME280_pressure;Samples;Min_cycle;Max_cycle;Signal;HPM_P1;HPM_P2
2022/06/24 00:01:56;;;;;;;2.23;2.10;;;;;;;;;;5027958;28;20490;-83
2022/06/24 00:04:25;;;;;;;2.80;2.60;;;;;;;;;;5031359;28;20473;-86
2022/06/24 00:06:52;;;;;;;2.50;2.30;;;;;;;;;;5028045;28;20458;-83
2022/06/24 00:09:20;;;;;;;2.73;2.53;;;;;;;;;;5030828;28;20469;-84
2022/06/24 00:12:01;;;;;;;2.80;2.60;;;;;;;;;;5027914;28;20462;-85
2022/06/24 00:14:29;;;;;;;2.53;2.33;;;;;;;;;;5031824;28;20462;-86
2022/06/24 00:16:58;;;;;;;2.43;2.23;;;;;;;;;;5030978;28;20459;-82
2022/06/24 00:19:25;;;;;;;2.57;2.40;;;;;;;;;;5031738;28;20466;-82
2022/06/24 00:21:59;;;;;;;2.57;2.37;;;;;;;;;;5027351;28;20474;-83
2022/06/24 00:24:27;;;;;;;3.30;2.23;;;;;;;;;;5024080;28;20964;-85
2022/06/24 00:26:54;;;;;;;2.60;2.40;;;;;;;;;;5032325;28;20446;-88
2022/06/24 00:29:21;;;;;;;2.50;2.30;;;;;;;;;;5029320;28;20904;-86
2022/06/24 00:32:06;;;;;;;2.70;2.50;;;;;;;;;;5029348;28;20532;-85
2022/06/24 00:34:34;;;;;;;2.53;2.33;;;;;;;;;;5030460;28;20845;-82
2022/06/24 00:37:15;;;;;;;2.50;2.30;;;;;;;;;;5030072;28;20974;-85
2022/06/24 00:39:42;;;;;;;2.70;2.50;;;;;;;;;;5027277;28;20466;-85
2022/06/24 00:42:10;;;;;;;2.10;2.00;;;;;;;;;;5028226;28;21000;-84
2022/06/24 00:44:44;;;;;;;2.30;2.20;;;;;;;;;;5036235;28;20466;-83
2022/06/24 00:47:16;;;;;;;2.40;2.20;;;;;;;;;;5029538;28;20976;-86
2022/06/24 00:49:43;;;;;;;2.33;2.17;;;;;;;;;;5024116;28;20506;-84
2022/06/24 00:52:11;;;;;;;2.43;2.23;;;;;;;;;;5031082;28;20443;-85
2022/06/24 00:54:38;;;;;;;2.43;2.23;;;;;;;;;;5024299;28;20463;-85
2022/06/24 00:57:06;;;;;;;2.10;2.00;;;;;;;;;;5029340;28;20457;-85
2022/06/24 00:59:35;;;;;;;1.97;1.87;;;;;;;;;;5029669;28;20454;-85
2022/06/24 01:02:05;;;;;;;2.30;2.10;;;;;;;;;;5026960;28;20536;-85
2022/06/24 01:04:34;;;;;;;2.60;2.20;;;;;;;;;;5030986;28;20461;-83
2022/06/24 01:07:01;;;;;;;2.50;2.30;;;;;;;;;;5030557;28;20438;-88
2022/06/24 01:09:29;;;;;;;3.10;2.90;;;;;;;;;;5033098;28;20948;-88
2022/06/24 01:11:56;;;;;;;2.43;2.23;;;;;;;;;;5030006;28;20941;-88
2022/06/24 01:14:23;;;;;;;2.67;2.47;;;;;;;;;;5031299;28;20477;-89
2022/06/24 01:16:50;;;;;;;2.57;2.37;;;;;;;;;;5030368;28;20870;-88
2022/06/24 01:19:17;;;;;;;2.10;1.97;;;;;;;;;;5032043;28;20464;-85
2022/06/24 01:21:46;;;;;;;2.17;2.03;;;;;;;;;;5024032;28;20455;-85
2022/06/24 01:24:16;;;;;;;2.20;2.00;;;;;;;;;;5027907;28;20482;-83
2022/06/24 01:26:43;;;;;;;2.60;2.40;;;;;;;;;;5026132;28;20805;-86
2022/06/24 01:29:11;;;;;;;2.27;2.03;;;;;;;;;;5030167;28;20486;-83
2022/06/24 01:31:40;;;;;;;2.67;2.47;;;;;;;;;;5026439;28;20537;-85
2022/06/24 01:34:08;;;;;;;2.13;1.87;;;;;;;;;;5029965;28;20565;-86
2022/06/24 01:36:35;;;;;;;2.13;1.90;;;;;;;;;;5028537;28;20483;-86
2022/06/24 01:39:04;;;;;;;2.57;2.37;;;;;;;;;;5025047;28;20964;-86
2022/06/24 01:41:31;;;;;;;2.60;2.40;;;;;;;;;;5027741;28;20474;-87
2022/06/24 01:43:58;;;;;;;2.47;2.27;;;;;;;;;;5028376;28;20477;-85
2022/06/24 01:46:25;;;;;;;2.50;2.30;;;;;;;;;;5025335;28;20839;-85
2022/06/24 01:48:52;;;;;;;2.43;2.23;;;;;;;;;;5028504;28;20993;-85
2022/06/24 01:51:21;;;;;;;2.27;2.17;;;;;;;;;;5028671;28;20960;-85
2022/06/24 01:53:48;;;;;;;2.73;2.30;;;;;;;;;;5027265;28;20457;-85
2022/06/24 01:56:17;;;;;;;2.20;2.10;;;;;;;;;;5027496;28;20465;-84
2022/06/24 01:58:44;;;;;;;2.77;2.57;;;;;;;;;;5030336;28;20822;-88
2022/06/24 02:01:12;;;;;;;2.83;2.13;;;;;;;;;;5025836;28;20458;-85
2022/06/24 02:03:40;;;;;;;2.50;2.30;;;;;;;;;;5029341;28;20478;-85
2022/06/24 02:06:08;;;;;;;2.07;1.93;;;;;;;;;;5030098;28;20466;-85
2022/06/24 02:08:35;;;;;;;2.00;1.80;;;;;;;;;;5030510;28;20945;-86
2022/06/24 02:13:49;;;;;;;2.50;2.30;;;;;;;;;;5026567;28;20453;-85
2022/06/24 02:16:18;;;;;;;2.40;2.20;;;;;;;;;;5024285;28;20450;-85
2022/06/24 02:18:45;;;;;;;2.30;2.10;;;;;;;;;;5031367;28;20450;-84
2022/06/24 02:21:12;;;;;;;2.33;2.13;;;;;;;;;;5027582;28;20454;-85
2022/06/24 02:23:40;;;;;;;2.93;2.73;;;;;;;;;;5027905;28;21078;-85
2022/06/24 02:26:07;;;;;;;1.93;1.83;;;;;;;;;;5026700;28;20466;-87
2022/06/24 02:28:34;;;;;;;2.40;2.13;;;;;;;;;;5030896;28;20493;-85
2022/06/24 02:31:03;;;;;;;1.93;1.83;;;;;;;;;;5024240;28;20462;-83
2022/06/24 02:33:31;;;;;;;2.80;2.60;;;;;;;;;;5030495;28;20774;-84
2022/06/24 02:35:58;;;;;;;2.30;2.10;;;;;;;;;;5028105;28;20454;-85
2022/06/24 02:38:25;;;;;;;2.47;2.17;;;;;;;;;;5026025;28;20469;-85
2022/06/24 02:40:53;;;;;;;2.57;2.37;;;;;;;;;;5029028;28;20918;-83
2022/06/24 02:43:21;;;;;;;3.63;2.00;;;;;;;;;;5029556;28;20486;-85
2022/06/24 02:45:48;;;;;;;2.30;2.10;;;;;;;;;;5027729;28;20462;-85
2022/06/24 02:48:17;;;;;;;2.30;2.07;;;;;;;;;;5033000;28;20466;-83
2022/06/24 02:50:45;;;;;;;3.90;1.97;;;;;;;;;;5031508;28;21020;-84
2022/06/24 02:53:14;;;;;;;2.10;1.80;;;;;;;;;;5030293;28;20462;-84
2022/06/24 02:55:42;;;;;;;2.37;2.07;;;;;;;;;;5031209;28;20466;-83
2022/06/24 02:58:09;;;;;;;3.50;2.20;;;;;;;;;;5029645;28;20955;-84
2022/06/24 03:00:36;;;;;;;2.40;2.20;;;;;;;;;;5031139;28;20470;-83
2022/06/24 03:03:03;;;;;;;2.30;2.20;;;;;;;;;;5026917;28;20981;-84
2022/06/24 03:05:32;;;;;;;2.57;2.00;;;;;;;;;;5032845;28;20516;-83
2022/06/24 03:07:59;;;;;;;3.50;2.30;;;;;;;;;;5028951;28;20454;-84
2022/06/24 03:10:26;;;;;;;3.90;2.23;;;;;;;;;;5033911;28;20469;-83
2022/06/24 03:12:53;;;;;;;3.40;2.23;;;;;;;;;;5025400;28;20470;-84
2022/06/24 03:15:20;;;;;;;2.60;2.30;;;;;;;;;;5032154;28;20473;-84
2022/06/24 03:17:48;;;;;;;5.37;2.60;;;;;;;;;;5027699;28;20455;-85
2022/06/24 03:20:15;;;;;;;2.33;2.00;;;;;;;;;;5031641;28;20546;-84
2022/06/24 03:22:43;;;;;;;3.63;2.30;;;;;;;;;;5030738;28;20462;-85
2022/06/24 03:25:10;;;;;;;2.93;2.17;;;;;;;;;;5035375;28;20454;-85
2022/06/24 03:27:38;;;;;;;3.07;2.13;;;;;;;;;;5034168;28;20466;-85
2022/06/24 03:30:06;;;;;;;4.40;2.17;;;;;;;;;;5032470;28;20470;-86
2022/06/24 03:32:33;;;;;;;2.70;1.83;;;;;;;;;;5031150;28;20454;-85
2022/06/24 03:35:01;;;;;;;6.43;2.77;;;;;;;;;;5032252;28;20446;-85
2022/06/24 03:37:28;;;;;;;3.50;1.97;;;;;;;;;;5031708;28;20474;-86
2022/06/24 03:39:56;;;;;;;4.90;2.30;;;;;;;;;;5023859;28;20454;-85
2022/06/24 03:42:23;;;;;;;2.43;1.90;;;;;;;;;;5033030;28;20459;-83
2022/06/24 03:44:51;;;;;;;2.17;1.97;;;;;;;;;;5034684;28;20490;-84
2022/06/24 03:47:18;;;;;;;2.43;2.20;;;;;;;;;;5034250;28;20490;-85
2022/06/24 03:49:45;;;;;;;2.40;2.20;;;;;;;;;;5039229;28;20454;-85
2022/06/24 03:52:12;;;;;;;3.20;2.10;;;;;;;;;;5029815;28;20462;-85
2022/06/24 03:54:39;;;;;;;2.00;1.90;;;;;;;;;;5032541;28;20833;-86
2022/06/24 03:57:08;;;;;;;2.43;2.23;;;;;;;;;;5031593;28;20481;-86
2022/06/24 03:59:35;;;;;;;2.50;2.30;;;;;;;;;;5027792;28;20466;-84
2022/06/24 04:02:02;;;;;;;4.80;2.40;;;;;;;;;;5032941;28;20482;-85
2022/06/24 04:04:29;;;;;;;2.73;2.53;;;;;;;;;;5034968;28;20485;-85
2022/06/24 04:06:56;;;;;;;5.73;2.63;;;;;;;;;;5032149;28;20455;-85
2022/06/24 04:09:23;;;;;;;2.10;1.90;;;;;;;;;;5035151;28;20466;-85
2022/06/24 04:11:50;;;;;;;3.37;2.80;;;;;;;;;;5030188;28;20489;-85
2022/06/24 04:15:13;;;;;;;2.80;1.90;;;;;;;;;;5029655;28;20463;-86
2022/06/24 04:17:06;;;;;;;2.33;2.13;;;;;;;;;;5027457;28;20450;-86
2022/06/24 04:19:35;;;;;;;2.60;1.70;;;;;;;;;;5029333;28;20814;-86
2022/06/24 04:22:03;;;;;;;2.57;2.37;;;;;;;;;;5021312;28;20975;-86
2022/06/24 04:24:30;;;;;;;3.30;2.23;;;;;;;;;;5032673;28;20478;-86
2022/06/24 04:26:57;;;;;;;2.70;2.33;;;;;;;;;;5036923;28;20466;-85
2022/06/24 04:29:25;;;;;;;4.10;2.40;;;;;;;;;;5038864;28;20442;-85
2022/06/24 04:31:52;;;;;;;3.50;2.20;;;;;;;;;;5039518;28;20453;-84
2022/06/24 04:34:19;;;;;;;3.30;2.17;;;;;;;;;;5042447;28;20454;-83
2022/06/24 04:36:47;;;;;;;2.27;1.93;;;;;;;;;;5045977;28;20458;-84
2022/06/24 04:39:14;;;;;;;2.93;2.30;;;;;;;;;;5048214;28;20462;-83
2022/06/24 04:41:41;;;;;;;3.17;2.20;;;;;;;;;;5046753;28;20442;-84
2022/06/24 04:44:08;;;;;;;2.63;1.97;;;;;;;;;;5046663;28;20474;-84
2022/06/24 04:46:36;;;;;;;2.60;1.87;;;;;;;;;;5047731;28;20477;-84
2022/06/24 04:49:03;;;;;;;2.87;1.77;;;;;;;;;;5043531;28;20473;-83
2022/06/24 04:51:30;;;;;;;2.83;2.47;;;;;;;;;;5047173;28;20485;-84
2022/06/24 04:53:58;;;;;;;2.30;2.00;;;;;;;;;;5045507;28;20822;-84
2022/06/24 04:56:25;;;;;;;2.80;2.20;;;;;;;;;;5045194;28;20470;-84
2022/06/24 04:58:52;;;;;;;3.40;2.40;;;;;;;;;;5047040;28;20446;-83
2022/06/24 05:01:19;;;;;;;4.57;2.20;;;;;;;;;;5030848;28;20987;-85
2022/06/24 05:03:48;;;;;;;3.33;1.90;;;;;;;;;;5031354;28;20478;-84
2022/06/24 05:06:15;;;;;;;2.50;2.30;;;;;;;;;;5024513;28;20463;-85
2022/06/24 05:08:43;;;;;;;2.77;1.87;;;;;;;;;;5048819;28;20946;-83
2022/06/24 05:11:12;;;;;;;2.20;2.00;;;;;;;;;;5031802;28;20458;-84
2022/06/24 05:13:39;;;;;;;3.33;2.70;;;;;;;;;;5032552;28;20462;-84
2022/06/24 05:16:06;;;;;;;2.30;2.10;;;;;;;;;;5026658;28;20457;-83
2022/06/24 05:18:33;;;;;;;3.23;2.93;;;;;;;;;;5039547;28;20446;-84
2022/06/24 05:21:02;;;;;;;6.13;2.60;;;;;;;;;;5042303;28;20458;-85
2022/06/24 05:23:29;;;;;;;3.20;2.63;;;;;;;;;;5027526;28;20545;-84
2022/06/24 05:25:56;;;;;;;2.43;2.23;;;;;;;;;;5026520;28;20961;-85
2022/06/24 05:28:23;;;;;;;3.37;2.17;;;;;;;;;;5030591;28;20458;-84
2022/06/24 05:30:56;;;;;;;3.40;3.10;;;;;;;;;;5027949;28;20470;-83
2022/06/24 05:33:23;;;;;;;2.83;2.50;;;;;;;;;;5031189;28;20435;-85
2022/06/24 05:35:52;;;;;;;2.20;1.83;;;;;;;;;;5026904;28;20462;-86
2022/06/24 05:38:22;;;;;;;2.50;2.20;;;;;;;;;;5028933;28;20462;-85
2022/06/24 05:40:49;;;;;;;3.03;2.30;;;;;;;;;;5028890;28;20485;-86
2022/06/24 05:43:16;;;;;;;3.03;2.70;;;;;;;;;;5030263;28;20458;-86
2022/06/24 05:45:43;;;;;;;2.77;2.30;;;;;;;;;;5027073;28;21039;-86
2022/06/24 05:48:10;;;;;;;2.90;2.50;;;;;;;;;;5026561;28;20634;-88
2022/06/24 05:50:38;;;;;;;2.23;2.03;;;;;;;;;;5030553;28;21094;-85
2022/06/24 05:55:51;;;;;;;4.53;2.37;;;;;;;;;;5029549;28;20539;-87
2022/06/24 05:58:18;;;;;;;2.90;2.03;;;;;;;;;;5030952;28;20512;-88
2022/06/24 06:00:45;;;;;;;5.33;3.00;;;;;;;;;;5025735;28;20455;-88
2022/06/24 06:03:12;;;;;;;4.17;2.00;;;;;;;;;;5026741;28;20494;-87
2022/06/24 06:05:39;;;;;;;2.90;1.93;;;;;;;;;;5024580;28;20486;-89
2022/06/24 06:08:06;;;;;;;5.57;2.60;;;;;;;;;;5026599;28;20465;-89
2022/06/24 06:10:36;;;;;;;3.43;2.27;;;;;;;;;;5030751;28;20451;-88
2022/06/24 06:13:04;;;;;;;6.70;2.63;;;;;;;;;;5027019;28;20454;-88
2022/06/24 06:15:31;;;;;;;5.17;2.50;;;;;;;;;;5028615;28;20458;-89
2022/06/24 06:18:01;;;;;;;2.70;2.30;;;;;;;;;;5029118;28;20932;-89
2022/06/24 06:20:28;;;;;;;2.97;2.60;;;;;;;;;;5030591;28;20941;-89
2022/06/24 06:22:55;;;;;;;3.87;2.43;;;;;;;;;;5027069;28;20489;-88
2022/06/24 06:25:22;;;;;;;3.73;2.33;;;;;;;;;;5032650;28;20482;-86
2022/06/24 06:27:50;;;;;;;2.80;1.80;;;;;;;;;;5036375;28;20692;-86
2022/06/24 06:30:18;;;;;;;2.93;2.40;;;;;;;;;;5034893;28;20453;-86
2022/06/24 06:32:45;;;;;;;2.83;2.47;;;;;;;;;;5030565;28;20465;-86
2022/06/24 06:35:12;;;;;;;2.80;2.00;;;;;;;;;;5041003;28;20458;-84
2022/06/24 06:37:39;;;;;;;3.40;2.40;;;;;;;;;;5046463;28;20453;-84
2022/06/24 06:40:07;;;;;;;4.70;2.37;;;;;;;;;;5046344;28;20465;-84
2022/06/24 06:42:34;;;;;;;2.40;1.67;;;;;;;;;;5043538;28;20458;-84
2022/06/24 06:45:01;;;;;;;3.20;2.60;;;;;;;;;;5042015;28;20482;-84
2022/06/24 06:47:29;;;;;;;4.23;2.10;;;;;;;;;;5057224;28;20480;-85
2022/06/24 06:49:56;;;;;;;2.33;2.13;;;;;;;;;;5029119;28;20465;-84
2022/06/24 06:52:23;;;;;;;1.93;1.83;;;;;;;;;;5033612;28;21027;-85
2022/06/24 06:54:51;;;;;;;2.80;2.50;;;;;;;;;;5033393;28;20462;-84
2022/06/24 06:57:18;;;;;;;3.37;1.80;;;;;;;;;;5046117;28;20450;-84
2022/06/24 06:59:46;;;;;;;2.80;2.50;;;;;;;;;;5042967;28;20454;-85
2022/06/24 07:02:13;;;;;;;2.17;1.97;;;;;;;;;;5033226;28;21032;-82
2022/06/24 07:04:42;;;;;;;2.70;1.90;;;;;;;;;;5030080;28;20477;-81
2022/06/24 07:07:09;;;;;;;2.57;1.90;;;;;;;;;;5025039;28;20474;-82
2022/06/24 07:09:36;;;;;;;3.63;1.80;;;;;;;;;;5026520;28;21099;-82
2022/06/24 07:12:03;;;;;;;4.80;2.37;;;;;;;;;;5033330;28;20466;-83
2022/06/24 07:14:30;;;;;;;4.20;1.90;;;;;;;;;;5032441;28;20457;-82
2022/06/24 07:16:57;;;;;;;2.10;1.90;;;;;;;;;;5033016;28;20524;-81
2022/06/24 07:19:24;;;;;;;2.80;2.27;;;;;;;;;;5030744;28;20836;-78
2022/06/24 07:21:52;;;;;;;3.87;1.87;;;;;;;;;;5027935;28;20463;-77
2022/06/24 07:24:19;;;;;;;5.77;2.50;;;;;;;;;;5028043;28;20527;-78
2022/06/24 07:26:46;;;;;;;2.37;1.80;;;;;;;;;;5023259;28;20949;-78
2022/06/24 07:29:14;;;;;;;2.20;1.90;;;;;;;;;;5022947;28;20450;-81
2022/06/24 07:31:41;;;;;;;4.57;2.03;;;;;;;;;;5029110;28;20465;-78
2022/06/24 07:34:08;;;;;;;2.70;1.80;;;;;;;;;;5029464;28;20464;-79
2022/06/24 07:36:35;;;;;;;3.60;2.00;;;;;;;;;;5022531;28;20981;-78
2022/06/24 07:39:03;;;;;;;4.10;2.00;;;;;;;;;;5025451;28;20955;-82
2022/06/24 07:41:30;;;;;;;3.40;2.13;;;;;;;;;;5033136;28;20508;-78
2022/06/24 07:43:57;;;;;;;4.30;2.33;;;;;;;;;;5031670;28;20469;-78
2022/06/24 07:46:24;;;;;;;3.67;2.00;;;;;;;;;;5027394;28;20459;-77
2022/06/24 07:48:51;;;;;;;4.10;1.90;;;;;;;;;;5024295;28;20458;-79
2022/06/24 07:51:19;;;;;;;4.70;2.13;;;;;;;;;;5030789;28;20550;-77
2022/06/24 07:53:47;;;;;;;3.07;1.90;;;;;;;;;;5030328;28;20972;-78
2022/06/24 07:59:00;;;;;;;2.30;1.60;;;;;;;;;;5030258;28;21028;-78
2022/06/24 08:01:27;;;;;;;3.00;2.20;;;;;;;;;;5025117;28;20701;-77
2022/06/24 08:03:54;;;;;;;2.13;1.93;;;;;;;;;;5029029;28;20975;-77
2022/06/24 08:06:21;;;;;;;1.60;1.50;;;;;;;;;;5027597;28;20490;-77
2022/06/24 08:08:48;;;;;;;3.63;1.67;;;;;;;;;;5026924;28;20454;-78
2022/06/24 08:11:17;;;;;;;5.20;2.13;;;;;;;;;;5022843;28;20466;-77
2022/06/24 08:13:44;;;;;;;3.63;1.80;;;;;;;;;;5031058;28;20458;-79
2022/06/24 08:16:11;;;;;;;4.20;1.67;;;;;;;;;;5024587;28;20462;-77
2022/06/24 08:18:38;;;;;;;2.57;2.20;;;;;;;;;;5030148;28;20521;-77
2022/06/24 08:21:05;;;;;;;1.83;1.50;;;;;;;;;;5022781;28;20478;-78
2022/06/24 08:23:32;;;;;;;2.33;1.50;;;;;;;;;;5026640;28;20451;-78
2022/06/24 08:25:59;;;;;;;2.87;1.80;;;;;;;;;;5026666;28;20544;-78
2022/06/24 08:28:28;;;;;;;2.80;1.63;;;;;;;;;;5030373;28;20469;-77
2022/06/24 08:30:55;;;;;;;1.33;1.23;;;;;;;;;;5028886;28;20979;-78
2022/06/24 08:33:22;;;;;;;2.50;1.57;;;;;;;;;;5028017;28;20466;-78
2022/06/24 08:35:50;;;;;;;1.73;1.60;;;;;;;;;;5032074;28;20516;-77
2022/06/24 08:38:18;;;;;;;3.80;1.77;;;;;;;;;;5028455;28;20462;-77
2022/06/24 08:40:46;;;;;;;4.17;1.83;;;;;;;;;;5029943;28;20995;-77
2022/06/24 08:43:14;;;;;;;1.70;1.23;;;;;;;;;;5030014;28;20447;-78
2022/06/24 08:45:42;;;;;;;5.00;2.10;;;;;;;;;;5026702;28;20486;-76
2022/06/24 08:48:10;;;;;;;2.30;1.50;;;;;;;;;;5022277;28;20474;-78
2022/06/24 08:50:37;;;;;;;4.47;1.80;;;;;;;;;;5030841;28;20952;-78
2022/06/24 08:53:07;;;;;;;2.33;1.90;;;;;;;;;;5027036;28;20539;-78
2022/06/24 08:55:36;;;;;;;3.17;2.00;;;;;;;;;;5030441;28;20442;-78
2022/06/24 08:58:07;;;;;;;2.20;1.53;;;;;;;;;;5030146;28;20451;-78
2022/06/24 09:00:34;;;;;;;2.27;1.50;;;;;;;;;;5028114;28;20811;-77
2022/06/24 09:03:02;;;;;;;3.07;1.50;;;;;;;;;;5030321;28;20485;-78
2022/06/24 09:05:29;;;;;;;2.03;1.53;;;;;;;;;;5024876;28;20486;-77
2022/06/24 09:07:58;;;;;;;3.00;1.53;;;;;;;;;;5024661;28;20443;-77
2022/06/24 09:10:25;;;;;;;1.50;1.40;;;;;;;;;;5029193;28;20501;-78
2022/06/24 09:12:53;;;;;;;2.20;1.60;;;;;;;;;;5026674;28;20489;-78
2022/06/24 09:15:20;;;;;;;1.87;1.30;;;;;;;;;;5027078;28;20497;-77
2022/06/24 09:17:47;;;;;;;2.67;2.47;;;;;;;;;;5021362;28;20462;-81
2022/06/24 09:20:16;;;;;;;2.10;1.40;;;;;;;;;;5019415;28;20942;-78
2022/06/24 09:22:43;;;;;;;1.83;1.50;;;;;;;;;;5023260;28;21029;-79
2022/06/24 09:25:10;;;;;;;1.90;1.30;;;;;;;;;;5026181;28;20567;-79
2022/06/24 09:27:43;;;;;;;2.10;1.90;;;;;;;;;;5029374;28;20462;-78
2022/06/24 09:30:11;;;;;;;2.90;1.47;;;;;;;;;;5028763;28;20470;-79
2022/06/24 09:32:49;;;;;;;2.70;1.23;;;;;;;;;;5028472;28;20462;-80
2022/06/24 09:35:18;;;;;;;2.13;1.40;;;;;;;;;;5023376;28;20454;-80
2022/06/24 09:37:46;;;;;;;1.60;1.50;;;;;;;;;;5027501;28;21035;-80
2022/06/24 09:40:20;;;;;;;2.10;1.57;;;;;;;;;;5027540;28;20455;-79
2022/06/24 09:42:54;;;;;;;2.50;1.40;;;;;;;;;;5025589;28;20469;-81
2022/06/24 09:45:21;;;;;;;2.30;1.50;;;;;;;;;;5023818;28;20572;-81
2022/06/24 09:47:49;;;;;;;3.00;1.77;;;;;;;;;;5031859;28;20462;-80
2022/06/24 09:50:16;;;;;;;1.63;1.43;;;;;;;;;;5030677;28;20524;-85
2022/06/24 09:52:45;;;;;;;2.43;1.60;;;;;;;;;;5032251;28;20459;-85
2022/06/24 09:55:12;;;;;;;3.60;2.07;;;;;;;;;;5031230;28;20451;-87
2022/06/24 09:57:39;;;;;;;1.83;1.20;;;;;;;;;;5034498;28;20829;-84
2022/06/24 10:02:52;;;;;;;3.30;1.90;;;;;;;;;;5033480;28;20955;-86
2022/06/24 10:05:20;;;;;;;3.13;2.40;;;;;;;;;;5023529;28;20489;-84
2022/06/24 10:07:49;;;;;;;3.00;1.70;;;;;;;;;;5026334;28;20457;-85
2022/06/24 10:10:17;;;;;;;2.80;1.53;;;;;;;;;;5026426;28;20462;-85
2022/06/24 10:12:46;;;;;;;1.83;1.57;;;;;;;;;;5021877;28;20968;-85
2022/06/24 10:15:15;;;;;;;1.67;1.57;;;;;;;;;;5026006;28;20821;-84
2022/06/24 10:17:43;;;;;;;1.53;1.43;;;;;;;;;;5024793;28;20880;-85
2022/06/24 10:20:11;;;;;;;3.73;2.23;;;;;;;;;;5021437;28;20502;-85
2022/06/24 10:22:38;;;;;;;5.40;1.77;;;;;;;;;;5022389;28;20469;-85
2022/06/24 10:25:07;;;;;;;2.13;1.70;;;;;;;;;;5027245;28;20932;-85
2022/06/24 10:27:53;;;;;;;2.03;1.83;;;;;;;;;;5022893;28;20454;-84
2022/06/24 10:30:36;;;;;;;2.03;1.80;;;;;;;;;;5030021;28;20484;-87
2022/06/24 10:33:12;;;;;;;2.10;1.90;;;;;;;;;;5030780;28;20482;-86
2022/06/24 10:35:55;;;;;;;1.90;1.80;;;;;;;;;;5029204;28;20453;-87
2022/06/24 10:38:23;;;;;;;2.23;2.03;;;;;;;;;;5022929;28;20964;-87
2022/06/24 10:40:52;;;;;;;2.97;2.53;;;;;;;;;;5023993;28;20469;-86
2022/06/24 10:43:34;;;;;;;2.10;1.90;;;;;;;;;;5031217;28;20493;-86
2022/06/24 10:46:20;;;;;;;2.20;2.00;;;;;;;;;;5023534;28;21065;-85
2022/06/24 10:49:02;;;;;;;2.47;2.00;;;;;;;;;;5030389;28;20945;-86
2022/06/24 10:51:32;;;;;;;2.80;1.90;;;;;;;;;;5027390;28;20465;-85
2022/06/24 10:54:17;;;;;;;2.67;2.47;;;;;;;;;;5034401;28;20485;-84
2022/06/24 10:56:46;;;;;;;2.70;2.03;;;;;;;;;;5043677;28;20454;-84
2022/06/24 10:59:14;;;;;;;3.23;2.20;;;;;;;;;;5046812;28;20867;-83
2022/06/24 11:01:43;;;;;;;2.50;2.30;;;;;;;;;;5038342;28;20544;-85
2022/06/24 11:04:12;;;;;;;2.10;1.90;;;;;;;;;;5037416;28;20849;-84
2022/06/24 11:06:39;;;;;;;2.37;1.90;;;;;;;;;;5040001;28;20541;-85
2022/06/24 11:09:07;;;;;;;2.40;1.70;;;;;;;;;;5025673;28;20466;-85
2022/06/24 11:11:34;;;;;;;1.93;1.83;;;;;;;;;;5030929;28;20458;-84
2022/06/24 11:14:23;;;;;;;2.30;2.10;;;;;;;;;;5036380;28;20462;-85
2022/06/24 11:16:50;;;;;;;1.70;1.60;;;;;;;;;;5035123;28;20458;-84
2022/06/24 11:19:18;;;;;;;1.90;1.70;;;;;;;;;;5036829;28;20957;-84
2022/06/24 11:21:49;;;;;;;2.70;1.83;;;;;;;;;;5034567;28;20469;-85
2022/06/24 11:24:17;;;;;;;2.10;1.80;;;;;;;;;;5033834;28;20454;-85
2022/06/24 11:27:03;;;;;;;1.90;1.80;;;;;;;;;;5038562;28;20482;-84
2022/06/24 11:29:49;;;;;;;1.70;1.60;;;;;;;;;;5032029;28;20880;-85
2022/06/24 11:32:16;;;;;;;2.10;1.87;;;;;;;;;;5039097;28;20956;-84
2022/06/24 11:34:44;;;;;;;2.17;1.63;;;;;;;;;;5040100;28;20450;-85
2022/06/24 11:37:12;;;;;;;2.20;1.77;;;;;;;;;;5029925;28;20524;-85
2022/06/24 11:39:39;;;;;;;3.03;1.90;;;;;;;;;;5035012;28;20536;-84
2022/06/24 11:42:07;;;;;;;2.13;1.97;;;;;;;;;;5028953;28;20439;-84
2022/06/24 11:44:36;;;;;;;2.73;1.90;;;;;;;;;;5027241;28;20804;-83
2022/06/24 11:47:05;;;;;;;2.33;2.23;;;;;;;;;;5023053;28;20492;-84
2022/06/24 11:49:33;;;;;;;4.50;2.10;;;;;;;;;;5035485;28;21001;-86
2022/06/24 11:52:00;;;;;;;4.70;2.30;;;;;;;;;;5036127;28;20446;-85
2022/06/24 11:54:28;;;;;;;2.30;1.77;;;;;;;;;;5028774;28;20450;-84
2022/06/24 11:56:55;;;;;;;2.13;1.97;;;;;;;;;;5023336;28;20459;-84
2022/06/24 11:59:23;;;;;;;1.80;1.70;;;;;;;;;;5026690;28;21142;-84
2022/06/24 12:01:52;;;;;;;2.40;2.20;;;;;;;;;;5029706;28;21098;-83
2022/06/24 12:04:20;;;;;;;1.73;1.63;;;;;;;;;;5031280;28;20466;-82
2022/06/24 12:06:48;;;;;;;2.40;2.17;;;;;;;;;;5026774;28;20479;-83
2022/06/24 12:09:16;;;;;;;3.57;1.60;;;;;;;;;;5022481;28;20454;-83
2022/06/24 12:11:45;;;;;;;1.83;1.60;;;;;;;;;;5024254;28;20459;-83
2022/06/24 12:14:14;;;;;;;1.90;1.70;;;;;;;;;;5028253;28;20458;-83
2022/06/24 12:17:02;;;;;;;2.20;2.10;;;;;;;;;;5025585;28;20830;-82
2022/06/24 12:19:30;;;;;;;4.90;1.40;;;;;;;;;;5023459;28;20454;-80
2022/06/24 12:22:08;;;;;;;1.83;1.33;;;;;;;;;;5022102;28;20972;-81
2022/06/24 12:24:35;;;;;;;1.80;1.70;;;;;;;;;;5018174;28;20849;-82
2022/06/24 12:27:04;;;;;;;2.10;1.83;;;;;;;;;;5024134;28;20486;-80
2022/06/24 12:29:32;;;;;;;2.23;2.03;;;;;;;;;;5030656;28;20546;-81
2022/06/24 12:32:01;;;;;;;1.70;1.50;;;;;;;;;;5023133;28;21011;-81
2022/06/24 12:34:28;;;;;;;1.50;1.40;;;;;;;;;;5022489;28;20957;-81
2022/06/24 12:36:57;;;;;;;2.13;1.63;;;;;;;;;;5019606;28;20473;-81
2022/06/24 12:39:28;;;;;;;2.60;1.70;;;;;;;;;;5024033;28;20560;-80
2022/06/24 12:41:55;;;;;;;2.13;1.93;;;;;;;;;;5023310;28;20458;-81
2022/06/24 12:44:22;;;;;;;1.80;1.43;;;;;;;;;;5029529;28;20450;-81
2022/06/24 12:52:36;;;;;;;1.80;1.70;;;;;;;;;;5029860;28;20462;-83
2022/06/24 12:55:04;;;;;;;1.83;1.73;;;;;;;;;;5026555;28;20453;-81
2022/06/24 12:57:31;;;;;;;1.77;1.67;;;;;;;;;;5028230;28;20458;-81
2022/06/24 12:59:58;;;;;;;2.10;2.00;;;;;;;;;;5026890;28;20847;-80
2022/06/24 13:02:25;;;;;;;3.73;1.77;;;;;;;;;;5024378;28;20493;-83
2022/06/24 13:04:54;;;;;;;2.30;1.60;;;;;;;;;;5026312;28;20481;-81
2022/06/24 13:07:21;;;;;;;3.80;2.10;;;;;;;;;;5020801;28;21001;-81
2022/06/24 13:09:48;;;;;;;1.70;1.60;;;;;;;;;;5026398;28;20466;-81
2022/06/24 13:12:15;;;;;;;1.47;1.37;;;;;;;;;;5025727;28;20458;-83
2022/06/24 13:14:42;;;;;;;1.97;1.60;;;;;;;;;;5019964;28;20469;-81
2022/06/24 13:17:09;;;;;;;1.70;1.33;;;;;;;;;;5023516;28;20469;-82
2022/06/24 13:19:36;;;;;;;2.20;1.67;;;;;;;;;;5023381;28;20466;-82
2022/06/24 13:22:05;;;;;;;1.63;1.43;;;;;;;;;;5020997;28;20462;-82
2022/06/24 13:24:32;;;;;;;2.73;1.33;;;;;;;;;;5020898;28;20976;-82
2022/06/24 13:27:01;;;;;;;2.80;1.83;;;;;;;;;;5020110;28;20474;-81
2022/06/24 13:29:28;;;;;;;1.57;1.47;;;;;;;;;;5019376;28;20545;-81
2022/06/24 13:31:56;;;;;;;1.50;1.40;;;;;;;;;;5026384;28;20446;-81
2022/06/24 13:34:23;;;;;;;1.73;1.53;;;;;;;;;;5026492;28;20446;-80
2022/06/24 13:36:50;;;;;;;1.33;1.23;;;;;;;;;;5023426;28;20457;-78
2022/06/24 13:39:19;;;;;;;2.43;2.23;;;;;;;;;;5025208;28;20450;-88
2022/06/24 13:41:46;;;;;;;2.53;2.27;;;;;;;;;;5031420;28;20458;-84
2022/06/24 13:44:13;;;;;;;3.33;2.10;;;;;;;;;;5024603;28;20467;-85
2022/06/24 13:46:40;;;;;;;2.10;1.80;;;;;;;;;;5026112;28;20853;-83
2022/06/24 13:49:07;;;;;;;4.80;2.13;;;;;;;;;;5027661;28;20881;-84
2022/06/24 13:51:34;;;;;;;2.30;2.10;;;;;;;;;;5023717;28;20447;-84
2022/06/24 13:54:01;;;;;;;5.97;2.27;;;;;;;;;;5018478;28;20466;-84
2022/06/24 13:56:30;;;;;;;1.87;1.77;;;;;;;;;;5027144;28;20459;-83
2022/06/24 13:58:57;;;;;;;2.43;1.90;;;;;;;;;;5028532;28;20770;-85
2022/06/24 14:01:24;;;;;;;2.37;2.17;;;;;;;;;;5023584;28;20493;-84
2022/06/24 14:03:51;;;;;;;1.97;1.87;;;;;;;;;;5027361;28;20457;-84
2022/06/24 14:06:18;;;;;;;2.10;1.87;;;;;;;;;;5026138;28;20482;-84
2022/06/24 14:08:45;;;;;;;3.67;3.37;;;;;;;;;;5028893;28;20438;-83
2022/06/24 14:11:13;;;;;;;3.37;3.17;;;;;;;;;;5029764;28;20937;-84
2022/06/24 14:13:41;;;;;;;4.47;2.70;;;;;;;;;;5030795;28;20446;-82
2022/06/24 14:16:08;;;;;;;3.10;2.50;;;;;;;;;;5028344;28;20458;-83
2022/06/24 14:18:36;;;;;;;3.00;2.80;;;;;;;;;;5024702;28;20544;-79
2022/06/24 14:21:04;;;;;;;2.90;2.30;;;;;;;;;;5022510;28;20454;-81
2022/06/24 14:26:16;;;;;;;3.13;2.63;;;;;;;;;;5023300;28;20457;-83
2022/06/24 14:28:44;;;;;;;3.40;2.70;;;;;;;;;;5028723;28;20818;-83
2022/06/24 14:31:11;;;;;;;5.30;2.33;;;;;;;;;;5027182;28;20457;-84
2022/06/24 14:33:38;;;;;;;2.60;2.40;;;;;;;;;;5028757;28;20468;-80
2022/06/24 14:36:05;;;;;;;2.60;2.40;;;;;;;;;;5032156;28;20454;-81
2022/06/24 14:41:17;;;;;;;3.03;2.83;;;;;;;;;;5015480;28;20410;-82
2022/06/24 14:43:46;;;;;;;3.03;2.83;;;;;;;;;;5026951;28;20458;-82
2022/06/24 14:46:13;;;;;;;3.57;3.33;;;;;;;;;;5026741;28;20493;-83
2022/06/24 14:48:40;;;;;;;3.40;2.60;;;;;;;;;;5027266;28;20454;-81
2022/06/24 14:51:07;;;;;;;2.57;2.37;;;;;;;;;;5032447;28;20454;-80
2022/06/24 14:53:35;;;;;;;3.10;2.83;;;;;;;;;;5030744;28;20464;-82
2022/06/24 14:56:02;;;;;;;2.67;2.47;;;;;;;;;;5030263;28;20450;-79
2022/06/24 14:58:29;;;;;;;2.87;2.67;;;;;;;;;;5033983;28;20458;-82
2022/06/24 15:00:57;;;;;;;2.57;2.40;;;;;;;;;;5024149;28;20969;-81
2022/06/24 15:03:24;;;;;;;2.50;2.30;;;;;;;;;;5031148;28;20494;-82
2022/06/24 15:05:51;;;;;;;2.63;2.30;;;;;;;;;;5033388;28;20457;-82
2022/06/24 15:08:19;;;;;;;4.30;2.37;;;;;;;;;;5031660;28;20470;-84
2022/06/24 15:10:46;;;;;;;2.70;2.50;;;;;;;;;;5024754;28;20454;-81
2022/06/24 15:13:13;;;;;;;2.93;2.63;;;;;;;;;;5032961;28;20454;-83